Atwater, Minnesota
Current Conditions -  °F | °C
As of 4:32 AM on Monday 20 Oct 2014 (Local Time) from KLJF Reporting Station
Clear Clear  
Wind Chill: 46°   Ceiling: Unl
Heat Index: 48°   Visibility: 10mi
Dew Point: 45°   Wind: 6mph
Humidity: 87%   Direction: 270°W
Pressure: 29.95"   Gusts: NA
Location:  45.14°N, 94.78°W
Report Text: KLJF 200932Z AUTO 27005KT 10SM CLR 09/07 A2995 RMK AO2
Loading
Personal Weather Stations






























Interactive Weather Map
Tropical Storm Tracking
New forecast layout! Learn more

10-Day Weather Forecast

Advertisements
Track Severe Weather on mobile